Time;durP1;ratioP1;P1;durP2;ratioP2;P2;SDS_P1;SDS_P2;PMS_P1;PMS_P2;Temp;Humidity;BMP_temperature;BMP_pressure;BME280_temperature;BME280_humidity;BME280_pressure;Samples;Min_cycle;Max_cycle;Signal;HPM_P1;HPM_P2
2021/12/02 00:01:43;;;;;;;1.20;0.35;;;;;;;;;;4915751;29;20047;-86
2021/12/02 00:04:18;;;;;;;0.63;0.10;;;;;;;;;;4915150;29;20089;-84
2021/12/02 00:06:47;;;;;;;1.10;0.30;;;;;;;;;;4916705;29;20056;-84
2021/12/02 00:09:15;;;;;;;0.75;0.20;;;;;;;;;;4915418;29;20062;-84
2021/12/02 00:11:44;;;;;;;1.13;0.30;;;;;;;;;;4915223;29;20048;-83
2021/12/02 00:14:14;;;;;;;1.10;0.30;;;;;;;;;;4912973;29;20047;-83
2021/12/02 00:16:53;;;;;;;0.90;0.20;;;;;;;;;;4907443;29;20056;-84
2021/12/02 00:22:11;;;;;;;2.00;0.40;;;;;;;;;;4873938;29;20049;-84
2021/12/02 00:24:41;;;;;;;1.47;0.50;;;;;;;;;;4899656;29;20436;-83
2021/12/02 00:27:10;;;;;;;0.93;0.20;;;;;;;;;;4914668;29;20150;-84
2021/12/02 00:29:39;;;;;;;0.90;0.20;;;;;;;;;;4897524;29;20047;-83
2021/12/02 00:32:09;;;;;;;1.90;0.40;;;;;;;;;;4899262;29;20067;-83
2021/12/02 00:34:48;;;;;;;1.05;0.22;;;;;;;;;;4917232;29;20058;-83
2021/12/02 00:37:17;;;;;;;0.70;0.10;;;;;;;;;;4914698;29;20052;-83
2021/12/02 00:39:49;;;;;;;1.10;0.43;;;;;;;;;;4914973;29;20056;-83
2021/12/02 00:42:18;;;;;;;1.17;0.30;;;;;;;;;;4914516;29;20076;-83
2021/12/02 00:44:47;;;;;;;1.63;0.38;;;;;;;;;;4915308;29;20055;-83
2021/12/02 00:47:16;;;;;;;1.25;0.30;;;;;;;;;;4914985;29;20052;-84
2021/12/02 00:49:48;;;;;;;0.90;0.20;;;;;;;;;;4914896;29;20055;-84
2021/12/02 00:52:19;;;;;;;1.60;0.50;;;;;;;;;;4913397;29;20700;-83
2021/12/02 00:54:48;;;;;;;1.40;0.30;;;;;;;;;;4883317;29;20055;-83
2021/12/02 00:57:17;;;;;;;2.03;0.45;;;;;;;;;;4914747;29;20094;-84
2021/12/02 00:59:47;;;;;;;1.80;0.40;;;;;;;;;;4914777;29;20044;-84
2021/12/02 01:02:18;;;;;;;1.13;0.30;;;;;;;;;;4898027;29;20051;-83
2021/12/02 01:04:49;;;;;;;1.55;0.50;;;;;;;;;;4915058;29;20060;-84
2021/12/02 01:07:19;;;;;;;2.42;0.60;;;;;;;;;;4914687;29;20051;-84
2021/12/02 01:09:49;;;;;;;2.28;0.90;;;;;;;;;;4914809;29;20063;-83
2021/12/02 01:12:17;;;;;;;1.90;0.52;;;;;;;;;;4900982;29;20125;-83
2021/12/02 01:14:46;;;;;;;1.73;0.43;;;;;;;;;;4901385;29;20050;-84
2021/12/02 01:17:15;;;;;;;2.35;0.30;;;;;;;;;;4900897;29;20146;-84
2021/12/02 01:19:44;;;;;;;1.40;0.50;;;;;;;;;;4914686;29;20114;-83
2021/12/02 01:22:15;;;;;;;2.58;0.60;;;;;;;;;;4897957;29;20048;-84
2021/12/02 01:24:44;;;;;;;2.55;0.50;;;;;;;;;;4916697;29;20426;-83
2021/12/02 01:27:13;;;;;;;1.40;0.40;;;;;;;;;;4913654;29;20069;-84
2021/12/02 01:29:41;;;;;;;4.53;0.63;;;;;;;;;;4906192;29;20048;-83
2021/12/02 01:32:11;;;;;;;1.67;0.50;;;;;;;;;;4918708;29;20056;-83
2021/12/02 01:34:44;;;;;;;2.15;0.40;;;;;;;;;;4922664;29;20093;-84
2021/12/02 01:37:15;;;;;;;1.38;0.40;;;;;;;;;;4914987;29;20501;-83
2021/12/02 01:39:43;;;;;;;1.37;0.40;;;;;;;;;;4914193;29;20133;-84
2021/12/02 01:42:15;;;;;;;1.55;0.57;;;;;;;;;;4909494;29;20148;-83
2021/12/02 01:44:49;;;;;;;3.63;0.50;;;;;;;;;;4912738;29;20052;-84
2021/12/02 01:47:18;;;;;;;1.92;0.65;;;;;;;;;;4913820;29;20056;-84
2021/12/02 01:49:47;;;;;;;1.20;0.38;;;;;;;;;;4914106;29;20079;-84
2021/12/02 01:52:21;;;;;;;2.57;0.53;;;;;;;;;;4913859;29;20062;-84
2021/12/02 01:54:51;;;;;;;1.40;0.47;;;;;;;;;;4914030;29;20479;-84
2021/12/02 01:57:27;;;;;;;5.22;0.88;;;;;;;;;;4911918;29;20415;-84
2021/12/02 02:00:04;;;;;;;2.70;0.82;;;;;;;;;;4915114;29;20052;-84
2021/12/02 02:02:40;;;;;;;2.05;0.70;;;;;;;;;;4918231;29;20155;-84
2021/12/02 02:05:35;;;;;;;1.30;0.40;;;;;;;;;;4913143;29;20090;-83
2021/12/02 02:08:07;;;;;;;1.80;0.40;;;;;;;;;;4885691;29;20487;-84
2021/12/02 02:10:37;;;;;;;1.35;0.47;;;;;;;;;;4917311;29;20119;-83
2021/12/02 02:13:08;;;;;;;1.83;0.52;;;;;;;;;;4919724;29;20101;-84
2021/12/02 02:15:37;;;;;;;6.75;0.80;;;;;;;;;;4917895;29;20630;-84
2021/12/02 02:18:11;;;;;;;2.27;0.60;;;;;;;;;;4919201;29;20052;-84
2021/12/02 02:20:43;;;;;;;1.10;0.38;;;;;;;;;;4916713;29;20040;-84
2021/12/02 02:23:12;;;;;;;1.50;0.43;;;;;;;;;;4918230;29;20055;-84
2021/12/02 02:25:43;;;;;;;1.10;0.38;;;;;;;;;;4914623;29;20191;-84
2021/12/02 02:28:11;;;;;;;1.02;0.32;;;;;;;;;;4916782;29;20055;-84
2021/12/02 02:30:39;;;;;;;3.23;0.40;;;;;;;;;;4917377;29;20111;-84
2021/12/02 02:33:10;;;;;;;2.13;0.60;;;;;;;;;;4915529;29;20499;-83
2021/12/02 02:35:38;;;;;;;1.70;0.52;;;;;;;;;;4916708;29;20495;-83
2021/12/02 02:38:08;;;;;;;1.73;0.70;;;;;;;;;;4917115;29;20048;-84
2021/12/02 02:40:40;;;;;;;2.70;0.70;;;;;;;;;;4916682;29;20052;-84
2021/12/02 02:43:09;;;;;;;7.30;0.87;;;;;;;;;;4917223;29;20044;-84
2021/12/02 02:45:39;;;;;;;1.40;0.30;;;;;;;;;;4919663;29;20048;-84
2021/12/02 02:48:07;;;;;;;1.20;0.30;;;;;;;;;;4918379;29;20058;-85
2021/12/02 02:50:36;;;;;;;1.65;0.43;;;;;;;;;;4900759;29;20107;-84
2021/12/02 02:53:06;;;;;;;1.67;0.60;;;;;;;;;;4901400;29;20127;-84
2021/12/02 02:55:36;;;;;;;2.60;0.60;;;;;;;;;;4917164;29;20478;-84
2021/12/02 02:58:13;;;;;;;2.50;0.80;;;;;;;;;;4926783;29;20055;-85
2021/12/02 03:00:49;;;;;;;1.85;0.60;;;;;;;;;;4919263;29;20073;-84
2021/12/02 03:03:51;;;;;;;2.40;0.60;;;;;;;;;;4910332;29;20066;-85
2021/12/02 03:06:29;;;;;;;1.92;0.40;;;;;;;;;;4922374;29;20118;-84
2021/12/02 03:09:02;;;;;;;2.07;0.57;;;;;;;;;;4936360;29;20391;-84
2021/12/02 03:11:40;;;;;;;3.42;0.65;;;;;;;;;;4918114;29;20052;-84
2021/12/02 03:14:12;;;;;;;2.72;0.50;;;;;;;;;;4917623;29;20111;-85
2021/12/02 03:16:47;;;;;;;2.08;0.43;;;;;;;;;;4936184;29;20157;-84
2021/12/02 03:19:17;;;;;;;1.70;0.75;;;;;;;;;;4918916;29;20069;-84
2021/12/02 03:21:46;;;;;;;2.13;0.93;;;;;;;;;;4919706;29;20135;-84
2021/12/02 03:24:15;;;;;;;1.80;0.50;;;;;;;;;;4938161;29;20054;-83
2021/12/02 03:26:45;;;;;;;2.28;0.63;;;;;;;;;;4919909;29;20406;-83
2021/12/02 03:29:14;;;;;;;2.22;0.52;;;;;;;;;;4919296;29;20482;-84
2021/12/02 03:31:43;;;;;;;1.75;0.60;;;;;;;;;;4919323;29;20040;-83
2021/12/02 03:34:11;;;;;;;3.10;0.67;;;;;;;;;;4917139;29;20457;-84
2021/12/02 03:36:40;;;;;;;4.13;0.93;;;;;;;;;;4919830;29;20048;-84
2021/12/02 03:39:10;;;;;;;3.65;0.70;;;;;;;;;;4919427;29;20050;-84
2021/12/02 03:41:39;;;;;;;1.90;0.52;;;;;;;;;;4921848;29;20062;-84
2021/12/02 03:44:10;;;;;;;2.05;0.77;;;;;;;;;;4919161;29;20049;-84
2021/12/02 03:46:39;;;;;;;1.93;0.70;;;;;;;;;;4936511;29;20044;-84
2021/12/02 03:49:09;;;;;;;2.25;0.70;;;;;;;;;;4919439;29;20102;-85
2021/12/02 03:51:37;;;;;;;3.13;0.88;;;;;;;;;;4919413;29;20044;-84
2021/12/02 03:54:06;;;;;;;2.33;0.88;;;;;;;;;;4918894;29;20048;-84
2021/12/02 03:56:35;;;;;;;1.77;0.68;;;;;;;;;;4919426;29;20062;-85
2021/12/02 03:59:04;;;;;;;1.60;0.57;;;;;;;;;;4903596;29;20048;-85
2021/12/02 04:01:34;;;;;;;1.27;0.40;;;;;;;;;;4919368;29;20051;-86
2021/12/02 04:06:59;;;;;;;1.88;0.60;;;;;;;;;;4915289;29;20482;-86
2021/12/02 04:09:35;;;;;;;2.10;0.60;;;;;;;;;;4914851;29;20056;-87
2021/12/02 04:12:08;;;;;;;2.10;0.60;;;;;;;;;;4916437;29;20084;-87
2021/12/02 04:14:49;;;;;;;1.35;0.40;;;;;;;;;;4915754;29;20052;-85
2021/12/02 04:17:28;;;;;;;1.40;0.50;;;;;;;;;;4913383;29;20072;-85
2021/12/02 04:19:58;;;;;;;1.83;0.50;;;;;;;;;;4912947;29;20103;-86
2021/12/02 04:22:27;;;;;;;2.15;0.70;;;;;;;;;;4915604;29;20484;-85
2021/12/02 04:24:57;;;;;;;3.00;0.73;;;;;;;;;;4902557;29;20075;-85
2021/12/02 04:27:25;;;;;;;6.55;0.90;;;;;;;;;;4915820;29;20062;-85
2021/12/02 04:29:53;;;;;;;1.95;0.70;;;;;;;;;;4919071;29;20493;-84
2021/12/02 04:32:23;;;;;;;1.98;0.70;;;;;;;;;;4915639;29;20060;-84
2021/12/02 04:34:52;;;;;;;5.60;0.40;;;;;;;;;;4915538;29;20064;-84
2021/12/02 04:37:20;;;;;;;1.23;0.50;;;;;;;;;;4915244;29;20095;-84
2021/12/02 04:39:49;;;;;;;1.27;0.40;;;;;;;;;;4917782;29;20044;-85
2021/12/02 04:42:18;;;;;;;1.33;0.43;;;;;;;;;;4924195;29;20078;-84
2021/12/02 04:44:46;;;;;;;1.83;0.60;;;;;;;;;;4920388;29;20044;-85
2021/12/02 04:47:14;;;;;;;4.15;0.88;;;;;;;;;;4917726;29;20063;-84
2021/12/02 04:49:44;;;;;;;1.70;0.40;;;;;;;;;;4915404;29;20104;-85
2021/12/02 04:52:14;;;;;;;1.58;0.55;;;;;;;;;;4914715;29;20103;-84
2021/12/02 04:54:54;;;;;;;1.50;0.57;;;;;;;;;;4914500;29;20052;-84
2021/12/02 04:57:30;;;;;;;5.40;1.15;;;;;;;;;;4916177;29;20257;-84
2021/12/02 04:59:59;;;;;;;2.25;0.70;;;;;;;;;;4914134;29;20055;-85
2021/12/02 05:03:02;;;;;;;2.90;1.10;;;;;;;;;;4914311;29;20115;-85
2021/12/02 05:05:34;;;;;;;2.35;0.80;;;;;;;;;;4914184;29;20503;-86
2021/12/02 05:08:04;;;;;;;2.83;0.57;;;;;;;;;;4901450;29;20078;-86
2021/12/02 05:10:33;;;;;;;3.78;1.15;;;;;;;;;;4899033;29;20122;-86
2021/12/02 05:13:02;;;;;;;2.75;0.88;;;;;;;;;;4914393;29;20047;-86
2021/12/02 05:15:30;;;;;;;1.63;0.30;;;;;;;;;;4908215;29;20062;-86
2021/12/02 05:17:59;;;;;;;3.28;0.90;;;;;;;;;;4919363;29;20051;-86
2021/12/02 05:20:29;;;;;;;2.80;0.47;;;;;;;;;;4930796;29;20056;-86
2021/12/02 05:23:00;;;;;;;2.10;0.50;;;;;;;;;;4937132;29;20062;-85
2021/12/02 05:25:29;;;;;;;2.08;0.60;;;;;;;;;;4915817;29;20135;-86
2021/12/02 05:27:58;;;;;;;2.10;0.63;;;;;;;;;;4913808;29;20426;-86
2021/12/02 05:30:26;;;;;;;2.65;0.55;;;;;;;;;;4930318;29;20407;-85
2021/12/02 05:32:55;;;;;;;4.65;0.43;;;;;;;;;;4914007;29;20065;-86
2021/12/02 05:35:23;;;;;;;1.63;0.45;;;;;;;;;;4909718;29;20060;-85
2021/12/02 05:37:52;;;;;;;1.95;0.80;;;;;;;;;;4910853;29;20052;-85
2021/12/02 05:40:23;;;;;;;4.50;0.70;;;;;;;;;;4915038;29;20582;-76
2021/12/02 05:42:52;;;;;;;3.75;1.02;;;;;;;;;;4915327;29;20052;-92
2021/12/02 05:45:23;;;;;;;2.10;0.90;;;;;;;;;;4921916;29;20418;-87
2021/12/02 05:47:56;;;;;;;1.80;0.57;;;;;;;;;;4900335;29;20498;-90
2021/12/02 05:53:18;;;;;;;2.43;0.77;;;;;;;;;;4900159;29;20100;-84
2021/12/02 05:56:12;;;;;;;2.67;0.80;;;;;;;;;;4909162;29;20185;-89
2021/12/02 05:58:42;;;;;;;1.88;0.65;;;;;;;;;;4914231;29;20491;-84
2021/12/02 06:01:11;;;;;;;2.58;0.70;;;;;;;;;;4918174;29;20048;-87
2021/12/02 06:03:40;;;;;;;3.35;1.20;;;;;;;;;;4921273;29;20079;-88
2021/12/02 06:06:09;;;;;;;3.17;0.93;;;;;;;;;;4916554;29;20050;-89
2021/12/02 06:08:38;;;;;;;3.08;0.70;;;;;;;;;;4903209;29;20048;-88
2021/12/02 06:11:10;;;;;;;2.95;0.80;;;;;;;;;;4901996;29;20059;-83
2021/12/02 06:13:41;;;;;;;3.72;1.80;;;;;;;;;;4917341;29;20099;-80
2021/12/02 06:16:11;;;;;;;3.33;0.80;;;;;;;;;;4917988;29;20052;-83
2021/12/02 06:18:41;;;;;;;3.30;1.10;;;;;;;;;;4916920;29;20079;-80
2021/12/02 06:21:11;;;;;;;2.65;1.30;;;;;;;;;;4900858;29;20148;-81
2021/12/02 06:23:41;;;;;;;3.83;0.93;;;;;;;;;;4921276;29;20455;-82
2021/12/02 06:26:10;;;;;;;3.05;1.00;;;;;;;;;;4917137;29;20058;-82
2021/12/02 06:28:39;;;;;;;3.13;1.00;;;;;;;;;;4941526;29;20111;-81
2021/12/02 06:31:11;;;;;;;4.70;0.80;;;;;;;;;;4918638;29;20075;-82
2021/12/02 06:33:40;;;;;;;2.30;0.57;;;;;;;;;;4916915;29;20079;-82
2021/12/02 06:36:09;;;;;;;4.28;1.33;;;;;;;;;;4917614;29;20056;-81
2021/12/02 06:39:01;;;;;;;4.63;1.30;;;;;;;;;;4901348;29;20407;-81
2021/12/02 06:41:52;;;;;;;6.85;1.48;;;;;;;;;;4933316;29;20056;-82
2021/12/02 06:44:53;;;;;;;7.43;1.27;;;;;;;;;;4901392;29;20111;-81
2021/12/02 06:47:27;;;;;;;2.75;0.93;;;;;;;;;;4917053;29;20058;-82
2021/12/02 06:50:18;;;;;;;1.88;0.75;;;;;;;;;;4917335;29;20052;-81
2021/12/02 06:52:47;;;;;;;3.38;1.00;;;;;;;;;;4913684;29;20407;-82
2021/12/02 06:55:17;;;;;;;5.63;1.00;;;;;;;;;;4920644;29;20110;-80
2021/12/02 06:57:45;;;;;;;3.80;0.90;;;;;;;;;;4933802;29;20649;-81
2021/12/02 07:00:15;;;;;;;2.45;0.70;;;;;;;;;;4920605;29;20070;-80
2021/12/02 07:03:18;;;;;;;7.90;0.88;;;;;;;;;;4919105;29;20055;-81
2021/12/02 07:05:52;;;;;;;3.25;1.13;;;;;;;;;;4917007;29;20055;-81
2021/12/02 07:08:21;;;;;;;2.90;0.88;;;;;;;;;;4935833;29;20055;-81
2021/12/02 07:10:50;;;;;;;2.40;1.00;;;;;;;;;;4917794;29;20058;-83
2021/12/02 07:13:19;;;;;;;7.93;0.98;;;;;;;;;;4920180;29;20058;-83
2021/12/02 07:15:52;;;;;;;5.47;0.85;;;;;;;;;;4915890;29;20111;-83
2021/12/02 07:18:21;;;;;;;4.65;1.00;;;;;;;;;;4926626;29;20063;-83
2021/12/02 07:20:52;;;;;;;1.63;0.40;;;;;;;;;;4920441;29;20055;-83
2021/12/02 07:23:22;;;;;;;2.10;0.70;;;;;;;;;;4920214;29;20055;-84
2021/12/02 07:25:52;;;;;;;3.35;1.25;;;;;;;;;;4919813;29;20055;-84
2021/12/02 07:28:21;;;;;;;2.78;0.82;;;;;;;;;;4912188;29;20118;-83
2021/12/02 07:30:53;;;;;;;2.75;0.82;;;;;;;;;;4932078;29;20051;-84
2021/12/02 07:33:22;;;;;;;5.38;1.73;;;;;;;;;;4942937;29;20040;-83
2021/12/02 07:35:52;;;;;;;2.50;0.70;;;;;;;;;;4926360;29;20051;-83
2021/12/02 07:38:22;;;;;;;3.55;1.05;;;;;;;;;;4919844;29;20056;-82
2021/12/02 07:40:50;;;;;;;4.63;0.93;;;;;;;;;;4923753;29;20106;-83
2021/12/02 07:43:21;;;;;;;2.30;0.80;;;;;;;;;;4926188;29;20052;-82
2021/12/02 07:45:51;;;;;;;8.02;1.10;;;;;;;;;;4941833;29;20043;-82
2021/12/02 07:48:21;;;;;;;2.67;0.70;;;;;;;;;;4925641;29;20059;-84
2021/12/02 07:50:50;;;;;;;4.20;0.88;;;;;;;;;;4921343;29;20054;-82
2021/12/02 07:53:21;;;;;;;5.88;0.82;;;;;;;;;;4938196;29;20043;-82
2021/12/02 07:55:52;;;;;;;2.42;0.93;;;;;;;;;;4934679;29;20062;-82
2021/12/02 07:58:22;;;;;;;3.20;1.02;;;;;;;;;;4919379;29;20059;-81
2021/12/02 08:00:51;;;;;;;7.83;1.33;;;;;;;;;;4934045;29;20043;-81
2021/12/02 08:03:20;;;;;;;3.55;0.88;;;;;;;;;;4918657;29;20048;-82
2021/12/02 08:05:50;;;;;;;2.08;0.60;;;;;;;;;;4935083;29;20157;-83
2021/12/02 08:08:24;;;;;;;2.15;0.75;;;;;;;;;;4903403;29;20060;-82
2021/12/02 08:10:53;;;;;;;3.72;0.68;;;;;;;;;;4942299;29;20043;-82
2021/12/02 08:13:28;;;;;;;3.37;1.10;;;;;;;;;;4922354;29;20509;-81
2021/12/02 08:15:57;;;;;;;3.05;0.70;;;;;;;;;;4919690;29;20062;-82
2021/12/02 08:18:26;;;;;;;4.55;1.15;;;;;;;;;;4912228;29;20055;-83
2021/12/02 08:21:20;;;;;;;5.72;0.95;;;;;;;;;;4911260;29;20044;-84
2021/12/02 08:23:51;;;;;;;3.22;0.85;;;;;;;;;;4911417;29;20054;-82
2021/12/02 08:26:19;;;;;;;3.20;1.10;;;;;;;;;;4917160;29;20139;-81
2021/12/02 08:28:48;;;;;;;1.90;0.60;;;;;;;;;;4914601;29;20058;-81
2021/12/02 08:31:17;;;;;;;2.22;0.98;;;;;;;;;;4911419;29;20049;-81
2021/12/02 08:33:49;;;;;;;2.47;1.05;;;;;;;;;;4919898;29;20048;-82
2021/12/02 08:36:18;;;;;;;2.45;0.60;;;;;;;;;;4938717;29;20055;-82
2021/12/02 08:38:48;;;;;;;3.17;0.90;;;;;;;;;;4936919;29;20059;-81
2021/12/02 08:41:18;;;;;;;1.98;0.65;;;;;;;;;;4933771;29;20056;-81
2021/12/02 08:43:48;;;;;;;2.35;1.00;;;;;;;;;;4918061;29;20099;-82
2021/12/02 08:46:18;;;;;;;2.47;0.98;;;;;;;;;;4918520;29;20054;-83
2021/12/02 08:48:50;;;;;;;3.88;1.17;;;;;;;;;;4920147;29;20047;-81
2021/12/02 08:51:19;;;;;;;3.03;1.23;;;;;;;;;;4918497;29;20040;-82
2021/12/02 08:53:48;;;;;;;2.70;1.00;;;;;;;;;;4916703;29;20490;-82
2021/12/02 08:56:18;;;;;;;2.20;0.73;;;;;;;;;;4917855;29;20067;-82
2021/12/02 08:58:46;;;;;;;4.47;1.08;;;;;;;;;;4918143;29;20401;-83
2021/12/02 09:01:15;;;;;;;2.83;1.02;;;;;;;;;;4918491;29;20048;-81
2021/12/02 09:03:45;;;;;;;2.20;0.70;;;;;;;;;;4919586;29;20089;-82
2021/12/02 09:06:39;;;;;;;3.33;0.65;;;;;;;;;;4914910;29;20056;-83
2021/12/02 09:09:09;;;;;;;1.63;0.60;;;;;;;;;;4898930;29;20099;-83
2021/12/02 09:11:39;;;;;;;2.80;0.77;;;;;;;;;;4917886;29;20047;-82
2021/12/02 09:14:07;;;;;;;4.28;0.70;;;;;;;;;;4933364;29;20052;-83
2021/12/02 09:16:37;;;;;;;2.30;1.10;;;;;;;;;;4918050;29;20164;-83
2021/12/02 09:19:06;;;;;;;2.15;0.52;;;;;;;;;;4917819;29;20083;-83
2021/12/02 09:21:35;;;;;;;1.30;0.38;;;;;;;;;;4917802;29;20569;-85
2021/12/02 09:24:04;;;;;;;4.45;0.60;;;;;;;;;;4916671;29;20103;-83
2021/12/02 09:26:33;;;;;;;1.40;0.50;;;;;;;;;;4919821;29;20052;-82
2021/12/02 09:29:03;;;;;;;1.27;0.33;;;;;;;;;;4917146;29;20043;-84
2021/12/02 09:31:32;;;;;;;1.65;0.50;;;;;;;;;;4915910;29;20059;-82
2021/12/02 09:34:00;;;;;;;1.60;0.47;;;;;;;;;;4903271;29;20059;-82
2021/12/02 09:36:32;;;;;;;1.88;0.68;;;;;;;;;;4918269;29;20103;-82
2021/12/02 09:39:04;;;;;;;1.77;0.60;;;;;;;;;;4940165;29;20055;-83
2021/12/02 09:41:58;;;;;;;4.60;0.67;;;;;;;;;;4959550;28;20138;-86
2021/12/02 09:44:31;;;;;;;;;;;;;;;;;;4907924;29;20073;-74
2021/12/02 09:47:03;;;;;;;;;;;;;;;;;;4899544;29;20553;-73
2021/12/02 09:49:32;;;;;;;;;;;;;;;;;;4932920;29;19945;-74
2021/12/02 09:52:03;;;;;;;;;;;;;;;;;;4933342;29;20299;-74
2021/12/02 09:54:33;;;;;;;;;;;;;;;;;;4916949;29;19967;-74
2021/12/02 09:57:04;;;;;;;;;;;;;;;;;;4930582;29;20030;-75
2021/12/02 09:59:35;;;;;;;;;;;;;;;;;;4935242;29;19933;-82
2021/12/02 10:02:06;;;;;;;;;;;;;;;;;;4919883;29;20285;-75
2021/12/02 10:04:42;;;;;;;;;;;;;;;;;;4933177;29;20412;-74
2021/12/02 10:07:15;;;;;;;;;;;;;;;;;;4934729;29;19959;-76
2021/12/02 10:09:50;;;;;;;;;;;;;;;;;;4917971;29;19953;-74
2021/12/02 10:12:22;;;;;;;;;;;;;;;;;;4930798;29;19927;-74
2021/12/02 10:14:50;;;;;;;;;;;;;;;;;;4917379;29;20270;-74
2021/12/02 10:17:19;;;;;;;;;;;;;;;;;;4934199;29;21488;-74
2021/12/02 10:19:48;;;;;;;;;;;;;;;;;;4931359;29;20363;-74
2021/12/02 10:22:22;;;;;;;;;;;;;;;;;;4914707;29;19965;-75
2021/12/02 10:24:50;;;;;;;;;;;;;;;;;;4901301;29;20388;-76
2021/12/02 10:27:20;;;;;;;0.70;0.10;;;;;;;;;;4922457;29;19953;-75
2021/12/02 10:29:50;;;;;;;1.27;0.25;;;;;;;;;;4919291;29;20509;-74
2021/12/02 10:32:20;;;;;;;1.20;0.20;;;;;;;;;;4936366;29;20376;-74
2021/12/02 10:34:48;;;;;;;;;;;;;;;;;;4920926;29;19983;-74
2021/12/02 10:37:18;;;;;;;;;;;;;;;;;;4920383;29;19957;-74
2021/12/02 10:39:46;;;;;;;;;;;;;;;;;;4920913;29;20370;-74
2021/12/02 10:42:22;;;;;;;1.70;0.40;;;;;;;;;;4941637;29;19956;-84
2021/12/02 10:44:54;;;;;;;2.03;0.57;;;;;;;;;;4913905;29;20451;-75
2021/12/02 10:47:23;;;;;;;1.50;0.40;;;;;;;;;;4936337;29;20048;-74
2021/12/02 10:49:54;;;;;;;1.13;0.50;;;;;;;;;;4921298;29;20067;-74
2021/12/02 10:52:23;;;;;;;2.40;0.60;;;;;;;;;;4936103;29;20059;-74
2021/12/02 10:54:53;;;;;;;1.10;0.30;;;;;;;;;;4936774;29;20418;-75
2021/12/02 10:57:23;;;;;;;1.80;0.60;;;;;;;;;;4936802;29;20052;-75
2021/12/02 10:59:52;;;;;;;;;;;;;;;;;;4919469;29;20389;-75
2021/12/02 11:02:20;;;;;;;;;;;;;;;;;;4936756;29;20012;-75
2021/12/02 11:04:49;;;;;;;;;;;;;;;;;;4915561;29;19980;-74
2021/12/02 11:07:18;;;;;;;;;;;;;;;;;;4918304;29;19996;-74
2021/12/02 11:09:48;;;;;;;;;;;;;;;;;;4917164;29;19954;-75
2021/12/02 11:12:21;;;;;;;1.13;0.30;;;;;;;;;;4915827;29;19969;-78
2021/12/02 11:14:55;;;;;;;1.85;0.50;;;;;;;;;;4915798;29;20056;-75
2021/12/02 11:17:29;;;;;;;1.00;0.20;;;;;;;;;;4915461;29;20060;-75
2021/12/02 11:19:59;;;;;;;1.40;0.40;;;;;;;;;;4916792;29;20594;-75
2021/12/02 11:22:29;;;;;;;0.90;0.30;;;;;;;;;;4916422;29;20060;-75
2021/12/02 11:24:59;;;;;;;2.45;0.35;;;;;;;;;;4916316;29;20116;-75
2021/12/02 11:27:31;;;;;;;3.63;0.65;;;;;;;;;;4917590;29;20103;-74
2021/12/02 11:30:01;;;;;;;1.38;0.60;;;;;;;;;;4915684;29;20169;-75
2021/12/02 11:32:38;;;;;;;1.13;0.30;;;;;;;;;;4916297;29;20047;-75
2021/12/02 11:35:15;;;;;;;1.50;0.40;;;;;;;;;;4915831;29;20052;-75
2021/12/02 11:37:45;;;;;;;2.55;0.57;;;;;;;;;;4919654;29;20079;-74
2021/12/02 11:40:14;;;;;;;1.50;0.30;;;;;;;;;;4914324;29;20044;-75
2021/12/02 11:42:45;;;;;;;3.90;0.90;;;;;;;;;;4916347;29;20086;-75
2021/12/02 11:45:15;;;;;;;;;;;;;;;;;;4915462;29;20052;-74
2021/12/02 11:47:43;;;;;;;;;;;;;;;;;;4916351;29;19945;-75
2021/12/02 11:50:11;;;;;;;;;;;;;;;;;;4915339;29;19942;-74
2021/12/02 11:52:43;;;;;;;;;;;;;;;;;;4929526;29;19933;-75
2021/12/02 11:55:11;;;;;;;;;;;;;;;;;;4917106;29;19934;-74
2021/12/02 11:57:39;;;;;;;;;;;;;;;;;;4916263;29;20400;-75
2021/12/02 12:00:08;;;;;;;;;;;;;;;;;;4917455;29;19954;-74
2021/12/02 12:02:39;;;;;;;;;;;;;;;;;;4917355;29;20366;-74
2021/12/02 12:05:08;;;;;;;;;;;;;;;;;;4915602;29;20387;-73
2021/12/02 12:07:41;;;;;;;;;;;;;;;;;;4919518;29;19953;-75
2021/12/02 12:10:09;;;;;;;;;;;;;;;;;;4915345;29;19996;-74
2021/12/02 12:12:38;;;;;;;;;;;;;;;;;;4918743;29;20346;-75
2021/12/02 12:15:06;;;;;;;;;;;;;;;;;;4916147;29;19999;-75
2021/12/02 12:17:34;;;;;;;;;;;;;;;;;;4917361;29;19957;-75
2021/12/02 12:20:03;;;;;;;;;;;;;;;;;;4915919;29;19961;-75
2021/12/02 12:22:33;;;;;;;;;;;;;;;;;;4915929;29;19958;-75
2021/12/02 12:25:06;;;;;;;;;;;;;;;;;;4913448;29;19994;-75
2021/12/02 12:27:34;;;;;;;;;;;;;;;;;;4920663;29;19957;-75
2021/12/02 12:30:02;;;;;;;;;;;;;;;;;;4913556;29;19960;-75
2021/12/02 12:33:00;;;;;;;;;;;;;;;;;;4909234;29;19974;-74
2021/12/02 12:35:37;;;;;;;;;;;;;;;;;;4916581;29;20176;-74
2021/12/02 12:38:06;;;;;;;;;;;;;;;;;;4917089;29;19957;-74
2021/12/02 12:40:42;;;;;;;1.90;0.73;;;;;;;;;;4915950;29;19957;-74
2021/12/02 12:43:27;;;;;;;1.48;0.50;;;;;;;;;;4911456;29;20040;-74
2021/12/02 12:46:10;;;;;;;1.52;0.63;;;;;;;;;;4898057;29;20039;-75
2021/12/02 12:48:41;;;;;;;1.98;0.60;;;;;;;;;;4915540;29;20078;-75
2021/12/02 12:51:12;;;;;;;;;;;;;;;;;;4919430;29;20566;-74
2021/12/02 12:53:40;;;;;;;;;;;;;;;;;;4916254;29;19959;-74
2021/12/02 12:56:08;;;;;;;;;;;;;;;;;;4931027;29;19957;-75
2021/12/02 12:58:46;;;;;;;;;;;;;;;;;;4919789;29;19996;-75
2021/12/02 13:01:16;;;;;;;;;;;;;;;;;;4915352;29;19953;-74
2021/12/02 13:03:47;;;;;;;;;;;;;;;;;;4917501;29;19957;-74
2021/12/02 13:06:21;;;;;;;;;;;;;;;;;;4917769;29;19933;-74
2021/12/02 13:08:49;;;;;;;;;;;;;;;;;;4917735;29;20411;-76
2021/12/02 13:11:41;;;;;;;;;;;;;;;;;;4931958;29;20004;-75
2021/12/02 13:14:09;;;;;;;;;;;;;;;;;;4934195;29;19957;-74
2021/12/02 13:16:45;;;;;;;;;;;;;;;;;;4917661;29;19944;-73
2021/12/02 13:19:14;;;;;;;;;;;;;;;;;;4916528;29;19960;-74
2021/12/02 13:21:50;;;;;;;;;;;;;;;;;;4914036;29;19940;-74
2021/12/02 13:24:34;;;;;;;;;;;;;;;;;;4933581;29;19968;-74
2021/12/02 13:27:03;;;;;;;;;;;;;;;;;;4917405;29;19922;-75
2021/12/02 13:29:31;;;;;;;;;;;;;;;;;;4917405;29;19964;-74
2021/12/02 13:31:59;;;;;;;;;;;;;;;;;;4915677;29;19964;-74
2021/12/02 13:34:28;;;;;;;;;;;;;;;;;;4918183;29;19979;-74
2021/12/02 13:36:57;;;;;;;;;;;;;;;;;;4919016;29;19988;-75
2021/12/02 13:39:25;;;;;;;;;;;;;;;;;;4934128;29;19988;-74
2021/12/02 13:41:55;;;;;;;;;;;;;;;;;;4934207;29;19996;-74
2021/12/02 13:44:26;;;;;;;;;;;;;;;;;;4916264;29;19957;-74
2021/12/02 13:46:54;;;;;;;;;;;;;;;;;;4937659;29;19988;-75
2021/12/02 13:49:23;;;;;;;;;;;;;;;;;;4934177;29;20377;-75
2021/12/02 13:54:38;;;;;;;;;;;;;;;;;;4932183;29;20044;-74
2021/12/02 13:57:06;;;;;;;;;;;;;;;;;;4906340;29;19937;-74
2021/12/02 13:59:35;;;;;;;;;;;;;;;;;;4919853;29;19953;-74
2021/12/02 14:02:03;;;;;;;;;;;;;;;;;;4946707;28;19957;-74
2021/12/02 14:04:36;;;;;;;;;;;;;;;;;;4919556;29;20025;-75
2021/12/02 14:07:05;;;;;;;;;;;;;;;;;;4919840;29;19980;-75
2021/12/02 14:09:34;;;;;;;;;;;;;;;;;;4918526;29;20381;-74
2021/12/02 14:12:03;;;;;;;;;;;;;;;;;;4919330;29;20056;-75
2021/12/02 14:14:31;;;;;;;;;;;;;;;;;;4918884;29;20004;-74
2021/12/02 14:17:39;;;;;;;;;;;;;;;;;;4915895;29;20177;-75
2021/12/02 14:20:07;;;;;;;;;;;;;;;;;;4917767;29;20042;-74
2021/12/02 14:22:36;;;;;;;;;;;;;;;;;;4918350;29;19958;-74
2021/12/02 14:25:05;;;;;;;;;;;;;;;;;;4921548;29;19954;-74
2021/12/02 14:27:33;;;;;;;;;;;;;;;;;;4919270;29;19992;-74
2021/12/02 14:30:02;;;;;;;;;;;;;;;;;;4918701;29;20305;-75
2021/12/02 14:32:30;;;;;;;;;;;;;;;;;;4919086;29;20056;-74
2021/12/02 14:34:59;;;;;;;;;;;;;;;;;;4918729;29;19957;-75
2021/12/02 14:37:27;;;;;;;;;;;;;;;;;;4919078;29;19957;-74
2021/12/02 14:39:55;;;;;;;;;;;;;;;;;;4919454;29;20371;-74
2021/12/02 14:42:24;;;;;;;;;;;;;;;;;;4918478;29;19960;-74
2021/12/02 14:44:55;;;;;;;;;;;;;;;;;;4919111;29;19983;-74
2021/12/02 14:47:24;;;;;;;;;;;;;;;;;;4916051;29;19948;-75
2021/12/02 14:49:54;;;;;;;;;;;;;;;;;;4912787;29;19976;-75
2021/12/02 14:52:26;;;;;;;;;;;;;;;;;;4918241;29;19957;-74
2021/12/02 14:55:00;;;;;;;;;;;;;;;;;;4917097;29;19953;-74
2021/12/02 14:57:29;;;;;;;;;;;;;;;;;;4916750;29;19964;-74
2021/12/02 14:59:57;;;;;;;;;;;;;;;;;;4918445;29;19958;-74
2021/12/02 15:02:28;;;;;;;;;;;;;;;;;;4914911;29;20354;-74
2021/12/02 15:05:22;;;;;;;;;;;;;;;;;;4947316;29;19971;-73
2021/12/02 15:07:52;;;;;;;;;;;;;;;;;;4934315;29;20395;-74
2021/12/02 15:10:21;;;;;;;;;;;;;;;;;;4937783;29;19968;-74
2021/12/02 15:12:50;;;;;;;;;;;;;;;;;;4937536;29;20056;-74
2021/12/02 15:15:18;;;;;;;;;;;;;;;;;;4920051;29;20004;-74
2021/12/02 15:17:47;;;;;;;;;;;;;;;;;;4937197;29;19959;-74
2021/12/02 15:20:15;;;;;;;;;;;;;;;;;;4919822;29;19957;-74
2021/12/02 15:23:10;;;;;;;;;;;;;;;;;;4937232;29;20029;-74
2021/12/02 15:25:38;;;;;;;;;;;;;;;;;;4920482;29;20015;-74
2021/12/02 15:28:07;;;;;;;;;;;;;;;;;;4916102;29;20000;-74
2021/12/02 15:30:35;;;;;;;;;;;;;;;;;;4933248;29;20005;-74
2021/12/02 15:33:03;;;;;;;;;;;;;;;;;;4936899;29;20415;-79
2021/12/02 15:35:59;;;;;;;;;;;;;;;;;;4936676;29;19956;-80
2021/12/02 15:38:30;;;;;;;;;;;;;;;;;;4938946;29;20307;-78
2021/12/02 15:40:59;;;;;;;;;;;;;;;;;;4936976;29;19960;-76
2021/12/02 15:43:29;;;;;;;;;;;;;;;;;;4904450;29;19937;-80
2021/12/02 15:45:57;;;;;;;;;;;;;;;;;;4933090;29;20346;-74
2021/12/02 15:48:26;;;;;;;;;;;;;;;;;;4915581;29;20003;-74
2021/12/02 15:50:55;;;;;;;;;;;;;;;;;;4891935;29;20424;-73
2021/12/02 15:53:25;;;;;;;;;;;;;;;;;;4919639;29;19927;-75
2021/12/02 15:55:54;;;;;;;;;;;;;;;;;;4917765;29;19971;-74
2021/12/02 15:58:25;;;;;;;;;;;;;;;;;;4916140;29;20005;-74